createdAt,value
2022-12-05T00:01:36.566Z,3.30
2022-12-05T00:04:05.475Z,3.20
2022-12-05T00:06:33.388Z,3.20
2022-12-05T00:09:00.005Z,3.20
2022-12-05T00:11:30.319Z,3.20
2022-12-05T00:13:57.846Z,3.20
2022-12-05T00:16:25.269Z,3.20
2022-12-05T00:18:52.096Z,3.10
2022-12-05T00:21:20.094Z,3.10
2022-12-05T00:23:46.604Z,3.20
2022-12-05T00:26:13.083Z,3.20
2022-12-05T00:28:39.736Z,3.10
2022-12-05T00:31:07.473Z,3.20
2022-12-05T00:33:34.120Z,3.20
2022-12-05T00:36:04.970Z,3.30
2022-12-05T00:38:31.484Z,3.30
2022-12-05T00:41:02.126Z,3.30
2022-12-05T00:43:28.598Z,3.30
2022-12-05T00:45:55.140Z,3.20
2022-12-05T00:48:21.701Z,3.20
2022-12-05T00:50:48.176Z,3.20
2022-12-05T00:53:14.661Z,3.30
2022-12-05T00:55:41.112Z,3.30
2022-12-05T00:58:07.536Z,3.30
2022-12-05T01:00:33.963Z,3.20
2022-12-05T01:03:00.601Z,3.30
2022-12-05T01:05:27.146Z,3.30
2022-12-05T01:07:53.658Z,3.30
2022-12-05T01:10:20.169Z,3.30
2022-12-05T01:12:46.633Z,3.30
2022-12-05T01:15:13.099Z,3.30
2022-12-05T01:17:42.745Z,3.20
2022-12-05T01:20:09.352Z,3.20
2022-12-05T01:22:35.811Z,3.20
2022-12-05T01:25:02.870Z,3.20
2022-12-05T01:27:29.381Z,3.20
2022-12-05T01:29:56.158Z,3.20
2022-12-05T01:32:22.887Z,3.20
2022-12-05T01:34:49.382Z,3.20
2022-12-05T01:37:15.834Z,3.20
2022-12-05T01:39:42.364Z,3.30
2022-12-05T01:42:08.831Z,3.30
2022-12-05T01:44:35.235Z,3.30
2022-12-05T01:47:01.762Z,3.20
2022-12-05T01:49:36.005Z,3.20
2022-12-05T01:52:05.803Z,3.20
2022-12-05T01:54:32.486Z,3.20
2022-12-05T01:57:03.724Z,3.30
2022-12-05T01:59:32.101Z,3.20
2022-12-05T02:01:58.790Z,3.20
2022-12-05T02:04:25.332Z,3.30
2022-12-05T02:06:51.802Z,3.30
2022-12-05T02:09:18.333Z,3.30
2022-12-05T02:11:49.704Z,3.30
2022-12-05T02:14:24.198Z,3.30
2022-12-05T02:17:09.211Z,3.30
2022-12-05T02:19:54.772Z,3.30
2022-12-05T02:22:37.338Z,3.30
2022-12-05T02:25:06.768Z,3.30
2022-12-05T02:27:41.507Z,3.40
2022-12-05T02:30:13.547Z,3.40
2022-12-05T02:32:46.107Z,3.40
2022-12-05T02:35:16.690Z,3.40
2022-12-05T02:37:49.547Z,3.40
2022-12-05T02:40:35.458Z,3.30
2022-12-05T02:43:05.480Z,3.30
2022-12-05T02:45:33.493Z,3.30
2022-12-05T02:48:00.612Z,3.30
2022-12-05T02:50:30.965Z,3.30
2022-12-05T02:53:00.243Z,3.40
2022-12-05T02:55:28.341Z,3.30
2022-12-05T02:57:56.760Z,3.30
2022-12-05T03:00:23.295Z,3.30
2022-12-05T03:02:54.195Z,3.30
2022-12-05T03:05:24.456Z,3.30
2022-12-05T03:07:52.674Z,3.30
2022-12-05T03:10:21.177Z,3.30
2022-12-05T03:12:53.821Z,3.30
2022-12-05T03:15:26.868Z,3.30
2022-12-05T03:18:06.388Z,3.30
2022-12-05T03:20:44.663Z,3.40
2022-12-05T03:23:18.360Z,3.30
2022-12-05T03:25:50.410Z,3.20
2022-12-05T03:28:25.203Z,3.20
2022-12-05T03:30:53.277Z,3.30
2022-12-05T03:33:21.848Z,3.20
2022-12-05T03:36:26.915Z,3.30
2022-12-05T03:39:19.632Z,3.30
2022-12-05T03:41:52.233Z,3.30
2022-12-05T03:44:31.121Z,3.30
2022-12-05T03:46:57.585Z,3.30
2022-12-05T03:49:33.877Z,3.40
2022-12-05T03:52:07.195Z,3.30
2022-12-05T03:54:36.246Z,3.40
2022-12-05T03:57:05.374Z,3.30
2022-12-05T03:59:38.119Z,3.40
2022-12-05T04:02:08.152Z,3.40
2022-12-05T04:04:37.936Z,3.40
2022-12-05T04:07:05.513Z,3.40
2022-12-05T04:09:36.207Z,3.40
2022-12-05T04:12:08.674Z,3.40
2022-12-05T04:14:56.715Z,3.40
2022-12-05T04:17:42.090Z,3.40
2022-12-05T04:20:35.099Z,3.40
2022-12-05T04:23:02.191Z,3.30
2022-12-05T04:25:33.360Z,3.40
2022-12-05T04:27:59.853Z,3.40
2022-12-05T04:30:32.044Z,3.40
2022-12-05T04:33:02.469Z,3.40
2022-12-05T04:35:30.684Z,3.50
2022-12-05T04:38:00.212Z,3.40
2022-12-05T04:40:30.243Z,3.50
2022-12-05T04:42:57.997Z,3.50
2022-12-05T04:45:25.771Z,3.50
2022-12-05T04:47:55.503Z,3.40
2022-12-05T04:50:23.439Z,3.40
2022-12-05T04:52:51.472Z,3.40
2022-12-05T04:55:25.561Z,3.40
2022-12-05T04:58:10.834Z,3.40
2022-12-05T05:00:59.132Z,3.40
2022-12-05T05:03:29.918Z,3.50
2022-12-05T05:05:56.782Z,3.50
2022-12-05T05:08:25.773Z,3.50
2022-12-05T05:10:56.900Z,3.50
2022-12-05T05:13:23.480Z,3.50
2022-12-05T05:15:50.081Z,3.50
2022-12-05T05:18:16.617Z,3.40
2022-12-05T05:20:43.085Z,3.40
2022-12-05T05:23:09.554Z,3.40
2022-12-05T05:25:36.108Z,3.40
2022-12-05T05:28:02.751Z,3.40
2022-12-05T05:30:29.358Z,3.50
2022-12-05T05:32:55.898Z,3.50
2022-12-05T05:35:22.581Z,3.50
2022-12-05T05:37:49.248Z,3.50
2022-12-05T05:40:16.176Z,3.50
2022-12-05T05:42:43.557Z,3.50
2022-12-05T05:45:10.453Z,3.50
2022-12-05T05:47:36.904Z,3.50
2022-12-05T05:50:03.814Z,3.50
2022-12-05T05:52:32.423Z,3.50
2022-12-05T05:54:58.950Z,3.50
2022-12-05T05:57:25.495Z,3.50
2022-12-05T05:59:52.267Z,3.60
2022-12-05T06:02:18.796Z,3.50
2022-12-05T06:04:45.390Z,3.50
2022-12-05T06:07:11.852Z,3.60
2022-12-05T06:09:38.420Z,3.60
2022-12-05T06:12:05.188Z,3.60
2022-12-05T06:14:32.044Z,3.60
2022-12-05T06:16:58.539Z,3.60
2022-12-05T06:19:25.159Z,3.70
2022-12-05T06:21:51.705Z,3.70
2022-12-05T06:24:18.276Z,3.70
2022-12-05T06:26:44.846Z,3.60
2022-12-05T06:29:11.430Z,3.60
2022-12-05T06:31:38.244Z,3.60
2022-12-05T06:34:04.787Z,3.60
2022-12-05T06:36:31.562Z,3.60
2022-12-05T06:38:58.200Z,3.60
2022-12-05T06:41:24.882Z,3.60
2022-12-05T06:44:00.142Z,3.70
2022-12-05T06:46:28.427Z,3.60
2022-12-05T06:48:56.635Z,3.60
2022-12-05T06:51:23.912Z,3.60
2022-12-05T06:53:50.565Z,3.70
2022-12-05T06:56:19.495Z,3.70
2022-12-05T06:58:48.054Z,3.70
2022-12-05T07:01:34.583Z,3.70
2022-12-05T07:04:01.237Z,3.70
2022-12-05T07:06:28.044Z,3.70
2022-12-05T07:08:54.849Z,3.70
2022-12-05T07:11:21.361Z,3.70
2022-12-05T07:13:47.981Z,3.70
2022-12-05T07:16:14.609Z,3.70
2022-12-05T07:18:41.272Z,3.70
2022-12-05T07:21:12.223Z,3.70
2022-12-05T07:23:40.059Z,3.70
2022-12-05T07:26:10.850Z,3.70
2022-12-05T07:28:37.399Z,3.70
2022-12-05T07:31:05.608Z,3.70
2022-12-05T07:33:32.165Z,3.70
2022-12-05T07:36:02.925Z,3.80
2022-12-05T07:38:29.694Z,3.80
2022-12-05T07:40:56.666Z,3.80
2022-12-05T07:43:23.329Z,3.80
2022-12-05T07:45:50.275Z,3.80
2022-12-05T07:48:18.804Z,3.80
2022-12-05T07:50:45.638Z,3.80
2022-12-05T07:53:12.103Z,3.80
2022-12-05T07:55:39.140Z,3.80
2022-12-05T07:58:05.766Z,3.80
2022-12-05T08:00:32.264Z,3.80
2022-12-05T08:02:59.017Z,3.80
2022-12-05T08:05:25.569Z,3.80
2022-12-05T08:07:52.161Z,3.80
2022-12-05T08:10:18.732Z,3.70
2022-12-05T08:12:45.223Z,3.80
2022-12-05T08:15:11.691Z,3.80
2022-12-05T08:17:38.155Z,3.80
2022-12-05T08:20:05.025Z,3.70
2022-12-05T08:22:31.523Z,3.70
2022-12-05T08:24:58.096Z,3.80
2022-12-05T08:27:24.601Z,3.80
2022-12-05T08:29:51.220Z,3.80
2022-12-05T08:32:17.769Z,3.80
2022-12-05T08:34:44.298Z,3.90
2022-12-05T08:37:11.049Z,3.90
2022-12-05T08:39:38.956Z,3.80
2022-12-05T08:42:05.670Z,3.80
2022-12-05T08:44:32.136Z,3.90
2022-12-05T08:46:58.903Z,4.00
2022-12-05T08:49:25.394Z,4.00
2022-12-05T08:51:51.892Z,4.00
2022-12-05T08:54:18.342Z,4.00
2022-12-05T08:56:44.832Z,4.00
2022-12-05T08:59:11.309Z,4.00
2022-12-05T09:01:39.463Z,4.00
2022-12-05T09:04:06.868Z,4.00
2022-12-05T09:06:34.563Z,4.00
2022-12-05T09:09:04.489Z,4.10
2022-12-05T09:11:32.912Z,4.10
2022-12-05T09:14:00.341Z,4.10
2022-12-05T09:16:37.142Z,4.10
2022-12-05T09:19:04.666Z,4.10
2022-12-05T09:21:31.811Z,4.10
2022-12-05T09:23:58.669Z,4.10
2022-12-05T09:26:26.635Z,4.10
2022-12-05T09:28:53.212Z,4.10
2022-12-05T09:31:21.208Z,4.20
2022-12-05T09:33:48.655Z,4.20
2022-12-05T09:36:20.257Z,4.20
2022-12-05T09:38:46.923Z,4.20
2022-12-05T09:41:51.260Z,4.20
2022-12-05T09:44:36.744Z,4.30
2022-12-05T09:47:07.589Z,4.30
2022-12-05T09:49:36.585Z,4.30
2022-12-05T09:52:03.801Z,4.30
2022-12-05T09:54:30.681Z,4.30
2022-12-05T09:56:58.797Z,4.30
2022-12-05T09:59:25.560Z,4.40
2022-12-05T10:02:16.501Z,4.40
2022-12-05T10:04:49.866Z,4.40
2022-12-05T10:07:19.295Z,4.40
2022-12-05T10:09:45.706Z,4.40
2022-12-05T10:12:20.178Z,4.40
2022-12-05T10:14:52.973Z,4.40
2022-12-05T10:17:39.748Z,4.40
2022-12-05T10:20:12.844Z,4.50
2022-12-05T10:22:45.655Z,4.50
2022-12-05T10:25:14.011Z,4.60
2022-12-05T10:28:09.653Z,4.60
2022-12-05T10:30:36.755Z,4.60
2022-12-05T10:33:11.223Z,4.60
2022-12-05T10:35:38.532Z,4.70
2022-12-05T10:38:06.626Z,4.70
2022-12-05T10:40:34.468Z,4.80
2022-12-05T10:43:01.074Z,4.90
2022-12-05T10:45:27.741Z,4.90
2022-12-05T10:47:55.725Z,4.90
2022-12-05T10:50:29.385Z,4.90
2022-12-05T10:52:56.463Z,4.90
2022-12-05T10:55:24.287Z,4.90
2022-12-05T10:57:51.888Z,4.90
2022-12-05T11:00:20.681Z,4.90
2022-12-05T11:02:50.765Z,4.90
2022-12-05T11:05:27.297Z,4.70
2022-12-05T11:07:54.361Z,4.80
2022-12-05T11:10:30.607Z,4.90
2022-12-05T11:12:57.903Z,5.00
2022-12-05T11:15:25.577Z,5.20
2022-12-05T11:17:56.870Z,5.30
2022-12-05T11:20:23.426Z,5.20
2022-12-05T11:22:50.878Z,5.10
2022-12-05T11:25:36.489Z,5.10
2022-12-05T11:28:18.314Z,5.10
2022-12-05T11:31:03.820Z,5.00
2022-12-05T11:33:31.810Z,5.00
2022-12-05T11:36:04.174Z,5.00
2022-12-05T11:38:32.695Z,5.00
2022-12-05T11:41:08.944Z,5.00
2022-12-05T11:44:05.319Z,5.00
2022-12-05T11:46:37.529Z,5.10
2022-12-05T11:49:28.877Z,5.20
2022-12-05T11:52:04.452Z,5.20
2022-12-05T11:55:03.993Z,5.40
2022-12-05T11:57:39.067Z,5.30
2022-12-05T12:00:27.375Z,5.20
2022-12-05T12:03:13.228Z,5.20
2022-12-05T12:05:58.723Z,5.10
2022-12-05T12:08:28.344Z,5.10
2022-12-05T12:10:58.092Z,5.00
2022-12-05T12:13:28.256Z,5.10
2022-12-05T12:16:08.053Z,5.20
2022-12-05T12:18:53.796Z,5.20
2022-12-05T12:21:39.107Z,5.20
2022-12-05T12:24:11.574Z,5.10
2022-12-05T12:26:38.130Z,5.00
2022-12-05T12:29:07.592Z,5.00
2022-12-05T12:31:40.723Z,5.00
2022-12-05T12:34:21.641Z,4.90
2022-12-05T12:36:55.231Z,4.90
2022-12-05T12:39:31.022Z,5.00
2022-12-05T12:42:09.884Z,4.90
2022-12-05T12:44:55.061Z,4.90
2022-12-05T12:47:24.559Z,4.90
2022-12-05T12:50:13.850Z,4.90
2022-12-05T12:52:59.254Z,4.90
2022-12-05T12:55:32.446Z,4.90
2022-12-05T12:58:04.968Z,5.00
2022-12-05T13:00:41.006Z,5.00
2022-12-05T13:03:10.423Z,5.00
2022-12-05T13:05:39.520Z,5.00
2022-12-05T13:08:14.921Z,5.00
2022-12-05T13:10:44.112Z,5.00
2022-12-05T13:13:13.115Z,5.00
2022-12-05T13:15:54.031Z,5.00
2022-12-05T13:18:22.447Z,5.00
2022-12-05T13:20:50.207Z,5.00
2022-12-05T13:23:19.385Z,5.00
2022-12-05T13:25:46.496Z,5.00
2022-12-05T13:28:25.646Z,5.00
2022-12-05T13:31:02.595Z,4.90
2022-12-05T13:33:33.574Z,5.00
2022-12-05T13:36:24.141Z,5.00
2022-12-05T13:39:14.282Z,5.00
2022-12-05T13:42:16.020Z,5.10
2022-12-05T13:44:42.728Z,5.00
2022-12-05T13:47:21.159Z,5.00
2022-12-05T13:49:53.864Z,5.10
2022-12-05T13:52:24.948Z,5.10
2022-12-05T13:54:56.500Z,5.10
2022-12-05T14:00:26.396Z,5.10
2022-12-05T14:02:54.610Z,5.10
2022-12-05T14:05:21.166Z,5.20
2022-12-05T14:07:50.673Z,5.20
2022-12-05T14:10:40.387Z,5.20
2022-12-05T14:13:16.307Z,5.20
2022-12-05T14:15:45.200Z,5.10
2022-12-05T14:18:30.181Z,5.20
2022-12-05T14:20:56.651Z,5.20
2022-12-05T14:23:26.167Z,5.20
2022-12-05T14:25:58.869Z,5.20
2022-12-05T14:28:38.379Z,5.20
2022-12-05T14:31:14.241Z,5.20
2022-12-05T14:33:40.942Z,5.20
2022-12-05T14:36:08.805Z,5.10
2022-12-05T14:38:37.872Z,5.10
2022-12-05T14:41:12.513Z,5.20
2022-12-05T14:43:39.252Z,5.20
2022-12-05T14:46:15.085Z,5.20
2022-12-05T14:48:47.896Z,5.10
2022-12-05T14:51:29.854Z,5.10
2022-12-05T14:54:10.398Z,5.20
2022-12-05T14:56:46.228Z,5.20
2022-12-05T14:59:12.678Z,5.20
2022-12-05T15:01:48.674Z,5.20
2022-12-05T15:04:18.952Z,5.20
2022-12-05T15:06:45.471Z,5.20
2022-12-05T15:09:39.966Z,5.20
2022-12-05T15:12:11.348Z,5.20
2022-12-05T15:14:44.742Z,5.20
2022-12-05T15:17:14.814Z,5.20
2022-12-05T15:19:47.151Z,5.20
2022-12-05T15:22:14.683Z,5.20
2022-12-05T15:24:41.216Z,5.10
2022-12-05T15:27:11.554Z,5.10
2022-12-05T15:29:38.734Z,5.10
2022-12-05T15:32:11.569Z,5.20
2022-12-05T15:34:53.651Z,5.20
2022-12-05T15:37:23.320Z,5.20
2022-12-05T15:39:56.800Z,5.20
2022-12-05T15:42:30.081Z,5.20
2022-12-05T15:45:23.735Z,5.20
2022-12-05T15:47:52.029Z,5.20
2022-12-05T15:50:38.411Z,5.20
2022-12-05T15:53:10.099Z,5.20
2022-12-05T15:55:39.191Z,5.20
2022-12-05T15:58:18.501Z,5.20
2022-12-05T16:00:47.866Z,5.20
2022-12-05T16:03:21.491Z,5.20
2022-12-05T16:05:48.125Z,5.30
2022-12-05T16:08:14.980Z,5.20
2022-12-05T16:10:41.524Z,5.30
2022-12-05T16:13:12.238Z,5.30
2022-12-05T16:15:41.876Z,5.30
2022-12-05T16:18:22.329Z,5.20
2022-12-05T16:20:49.395Z,5.30
2022-12-05T16:23:32.499Z,5.30
2022-12-05T16:26:18.096Z,5.20
2022-12-05T16:28:56.301Z,5.30
2022-12-05T16:31:23.009Z,5.30
2022-12-05T16:33:58.669Z,5.30
2022-12-05T16:36:25.234Z,5.30
2022-12-05T16:38:59.448Z,5.20
2022-12-05T16:41:32.660Z,5.30
2022-12-05T16:43:59.195Z,5.30
2022-12-05T16:46:27.478Z,5.30
2022-12-05T16:49:12.332Z,5.30
2022-12-05T16:51:43.826Z,5.30
2022-12-05T16:54:10.316Z,5.30
2022-12-05T16:56:37.555Z,5.30
2022-12-05T16:59:05.397Z,5.30
2022-12-05T17:01:37.148Z,5.30
2022-12-05T17:04:05.574Z,5.30
2022-12-05T17:06:32.123Z,5.30
2022-12-05T17:08:59.064Z,5.30
2022-12-05T17:11:26.897Z,5.30
2022-12-05T17:13:54.459Z,5.40
2022-12-05T17:16:21.404Z,5.30
2022-12-05T17:18:47.904Z,5.30
2022-12-05T17:21:18.587Z,5.40
2022-12-05T17:23:47.784Z,5.30
2022-12-05T17:26:16.279Z,5.30
2022-12-05T17:28:42.835Z,5.40
2022-12-05T17:31:10.627Z,5.40
2022-12-05T17:33:37.180Z,5.40
2022-12-05T17:36:03.921Z,5.40
2022-12-05T17:38:30.490Z,5.40
2022-12-05T17:40:57.114Z,5.40
2022-12-05T17:43:25.453Z,5.40
2022-12-05T17:45:53.896Z,5.40
2022-12-05T17:48:20.587Z,5.40
2022-12-05T17:50:48.303Z,5.40
2022-12-05T17:53:18.714Z,5.30
2022-12-05T17:55:48.054Z,5.30
2022-12-05T17:58:15.626Z,5.30
2022-12-05T18:00:42.809Z,5.40
2022-12-05T18:03:12.896Z,5.40
2022-12-05T18:05:39.572Z,5.40
2022-12-05T18:08:06.650Z,5.40
2022-12-05T18:10:33.271Z,5.40
2022-12-05T18:12:59.897Z,5.40
2022-12-05T18:15:26.507Z,5.40
2022-12-05T18:17:53.006Z,5.40
2022-12-05T18:20:19.503Z,5.40
2022-12-05T18:22:46.016Z,5.40
2022-12-05T18:25:12.519Z,5.40
2022-12-05T18:27:39.224Z,5.40
2022-12-05T18:30:06.224Z,5.40
2022-12-05T18:32:34.838Z,5.30
2022-12-05T18:35:01.938Z,5.30
2022-12-05T18:37:29.107Z,5.30
2022-12-05T18:39:56.304Z,5.40
2022-12-05T18:42:23.112Z,5.40
2022-12-05T18:44:49.738Z,5.40
2022-12-05T18:47:16.189Z,5.40
2022-12-05T18:49:42.643Z,5.40
2022-12-05T18:52:09.232Z,5.40
2022-12-05T18:54:35.941Z,5.30
2022-12-05T18:57:02.476Z,5.30
2022-12-05T18:59:30.478Z,5.30
2022-12-05T19:01:59.809Z,5.30
2022-12-05T19:04:26.804Z,5.40
2022-12-05T19:06:54.303Z,5.30
2022-12-05T19:09:22.254Z,5.30
2022-12-05T19:11:50.354Z,5.30
2022-12-05T19:14:18.767Z,5.30
2022-12-05T19:16:45.935Z,5.30
2022-12-05T19:19:13.719Z,5.30
2022-12-05T19:21:40.714Z,5.30
2022-12-05T19:24:08.109Z,5.30
2022-12-05T19:26:34.909Z,5.30
2022-12-05T19:29:01.488Z,5.30
2022-12-05T19:31:29.601Z,5.30
2022-12-05T19:33:59.346Z,5.30
2022-12-05T19:36:27.475Z,5.30
2022-12-05T19:38:54.490Z,5.30
2022-12-05T19:41:22.553Z,5.30
2022-12-05T19:43:49.414Z,5.20
2022-12-05T19:46:15.994Z,5.30
2022-12-05T19:48:42.796Z,5.20
2022-12-05T19:51:09.266Z,5.20
2022-12-05T19:53:37.474Z,5.20
2022-12-05T19:56:08.737Z,5.20
2022-12-05T19:58:36.368Z,5.20
2022-12-05T20:01:13.420Z,5.20
2022-12-05T20:03:40.499Z,5.30
2022-12-05T20:06:07.415Z,5.20
2022-12-05T20:08:34.707Z,5.20
2022-12-05T20:11:08.028Z,5.20
2022-12-05T20:13:47.017Z,5.20
2022-12-05T20:16:15.493Z,5.20
2022-12-05T20:18:42.202Z,5.20
2022-12-05T20:21:10.314Z,5.20
2022-12-05T20:23:37.016Z,5.20
2022-12-05T20:26:09.486Z,5.20
2022-12-05T20:28:36.234Z,5.20
2022-12-05T20:31:06.828Z,5.20
2022-12-05T20:33:33.731Z,5.10
2022-12-05T20:36:01.595Z,5.10
2022-12-05T20:38:28.400Z,5.10
2022-12-05T20:40:58.210Z,5.10
2022-12-05T20:43:24.712Z,5.10
2022-12-05T20:45:51.267Z,5.10
2022-12-05T20:48:17.796Z,5.10
2022-12-05T20:50:44.235Z,5.10
2022-12-05T20:53:10.908Z,5.10
2022-12-05T20:55:37.420Z,5.10
2022-12-05T20:58:05.316Z,5.10
2022-12-05T21:00:32.138Z,5.10
2022-12-05T21:02:58.759Z,5.10
2022-12-05T21:05:25.303Z,5.10
2022-12-05T21:07:51.853Z,5.10
2022-12-05T21:10:18.487Z,5.10
2022-12-05T21:12:44.930Z,5.10
2022-12-05T21:15:11.593Z,5.10
2022-12-05T21:17:38.211Z,5.10
2022-12-05T21:20:05.599Z,5.00
2022-12-05T21:22:32.124Z,5.10
2022-12-05T21:24:58.564Z,5.00
2022-12-05T21:27:25.068Z,5.00
2022-12-05T21:29:52.232Z,5.00
2022-12-05T21:32:18.708Z,5.10
2022-12-05T21:34:45.300Z,5.10
2022-12-05T21:37:11.797Z,5.10
2022-12-05T21:39:38.232Z,5.10
2022-12-05T21:42:04.795Z,5.10
2022-12-05T21:44:31.328Z,5.10
2022-12-05T21:46:57.951Z,5.10
2022-12-05T21:49:24.518Z,5.10
2022-12-05T21:51:51.053Z,5.10
2022-12-05T21:54:17.484Z,5.10
2022-12-05T21:56:45.133Z,5.10
2022-12-05T21:59:11.690Z,5.10
2022-12-05T22:01:38.204Z,5.10
2022-12-05T22:04:04.793Z,5.10
2022-12-05T22:06:34.993Z,5.00
2022-12-05T22:09:01.736Z,5.10
2022-12-05T22:11:28.230Z,5.10
2022-12-05T22:13:54.864Z,5.10
2022-12-05T22:16:21.632Z,5.10
2022-12-05T22:18:48.227Z,5.10
2022-12-05T22:21:18.768Z,5.10
2022-12-05T22:23:45.564Z,5.10
2022-12-05T22:26:13.371Z,5.10
2022-12-05T22:28:39.867Z,5.10
2022-12-05T22:31:07.510Z,5.10
2022-12-05T22:33:36.459Z,5.10
2022-12-05T22:36:04.334Z,5.10
2022-12-05T22:38:34.922Z,5.10
2022-12-05T22:41:03.003Z,5.10
2022-12-05T22:43:30.232Z,5.10
2022-12-05T22:45:56.955Z,5.10
2022-12-05T22:48:23.956Z,5.10
2022-12-05T22:50:51.410Z,5.10
2022-12-05T22:53:18.641Z,5.10
2022-12-05T22:55:45.139Z,5.10
2022-12-05T22:58:11.563Z,5.10
2022-12-05T23:00:38.413Z,5.10
2022-12-05T23:03:05.070Z,5.10
2022-12-05T23:05:31.651Z,5.10
2022-12-05T23:07:58.195Z,5.10
2022-12-05T23:10:24.887Z,5.10
2022-12-05T23:12:51.491Z,5.10
2022-12-05T23:15:18.028Z,5.10
2022-12-05T23:17:46.324Z,5.10
2022-12-05T23:20:12.817Z,5.10
2022-12-05T23:22:39.280Z,5.10
2022-12-05T23:25:05.819Z,5.10
2022-12-05T23:27:32.279Z,5.10
2022-12-05T23:29:59.013Z,5.10
2022-12-05T23:32:25.817Z,5.10
2022-12-05T23:34:52.289Z,5.10
2022-12-05T23:37:18.831Z,5.10
2022-12-05T23:39:45.336Z,5.00
2022-12-05T23:42:15.183Z,5.00
2022-12-05T23:44:41.997Z,5.00
2022-12-05T23:47:08.711Z,5.00
2022-12-05T23:49:35.216Z,5.00
2022-12-05T23:52:01.716Z,5.00
2022-12-05T23:54:28.303Z,5.00
2022-12-05T23:56:55.041Z,5.00
2022-12-05T23:59:21.538Z,4.90
